Time;durP1;ratioP1;P1;durP2;ratioP2;P2;SDS_P1;SDS_P2;PMS_P1;PMS_P2;Temp;Humidity;BMP_temperature;BMP_pressure;BME280_temperature;BME280_humidity;BME280_pressure;Samples;Min_cycle;Max_cycle;Signal;HPM_P1;HPM_P2
2021/10/16 00:00:29;;;;;;;6.25;2.00;;;;;;;5.29;100.00;101443.50;6120760;23;20025;-85
2021/10/16 00:03:13;;;;;;;14.88;2.42;;;;;;;5.29;100.00;101446.09;6146569;23;20036;-85
2021/10/16 00:05:40;;;;;;;;;;;;;;;5.25;100.00;101449.47;6123077;23;20134;-86
2021/10/16 00:08:11;;;;;;;14.60;2.67;;;;;;;5.22;100.00;101445.06;6144816;23;19927;-85
2021/10/16 00:10:38;;;;;;;4.82;0.93;;;;;;;5.22;100.00;101449.41;6122816;23;20025;-85
2021/10/16 00:13:05;;;;;;;6.00;3.22;;;;;;;5.19;100.00;101450.19;6121785;23;20036;-85
2021/10/16 00:15:32;;;;;;;5.30;2.03;;;;;;;5.16;100.00;101447.50;6119369;23;20433;-86
2021/10/16 00:17:59;;;;;;;8.13;1.95;;;;;;;5.17;100.00;101457.06;6125179;23;20026;-84
2021/10/16 00:20:26;;;;;;;7.65;2.55;;;;;;;5.20;100.00;101451.97;6122703;23;20391;-85
2021/10/16 00:22:53;;;;;;;14.60;3.05;;;;;;;5.24;100.00;101455.50;6121946;23;20103;-85
2021/10/16 00:25:23;;;;;;;6.20;1.40;;;;;;;5.28;100.00;101455.63;6121576;23;20022;-85
2021/10/16 00:27:50;;;;;;;16.08;2.72;;;;;;;5.31;100.00;101449.63;6121997;23;20041;-84
2021/10/16 00:30:17;;;;;;;5.53;2.08;;;;;;;5.34;100.00;101454.03;6122784;23;20059;-86
2021/10/16 00:32:44;;;;;;;4.78;1.33;;;;;;;5.35;100.00;101459.25;6147314;23;20029;-85
2021/10/16 00:35:11;;;;;;;9.30;1.50;;;;;;;5.34;100.00;101452.28;6146569;23;20402;-85
2021/10/16 00:37:38;;;;;;;6.30;1.55;;;;;;;5.33;100.00;101455.72;6147191;23;20013;-85
2021/10/16 00:40:07;;;;;;;10.60;1.67;;;;;;;5.34;100.00;101451.44;6122185;23;20462;-85
2021/10/16 00:42:49;;;;;;;11.88;1.45;;;;;;;5.32;100.00;101451.41;6124308;23;20678;-85
2021/10/16 00:45:19;;;;;;;5.45;1.38;;;;;;;5.30;100.00;101453.06;6133597;23;20659;-85
2021/10/16 00:47:47;;;;;;;9.15;1.90;;;;;;;5.38;100.00;101466.25;6148240;23;20081;-85
2021/10/16 00:50:15;;;;;;;6.00;1.33;;;;;;;5.40;100.00;101455.06;6119800;23;20040;-85
2021/10/16 00:52:43;;;;;;;6.85;1.70;;;;;;;5.42;100.00;101462.88;6121561;23;20080;-85
2021/10/16 00:55:13;;;;;;;4.63;1.40;;;;;;;5.47;100.00;101471.66;6121845;23;20080;-85
2021/10/16 00:57:40;;;;;;;12.48;1.88;;;;;;;5.50;100.00;101466.56;6121192;23;20114;-85
2021/10/16 01:00:10;;;;;;;8.13;1.60;;;;;;;5.54;100.00;101467.50;6145930;23;20072;-84
2021/10/16 01:02:37;;;;;;;4.53;1.38;;;;;;;5.61;100.00;101461.63;6119928;23;20091;-85
2021/10/16 01:05:06;;;;;;;8.13;1.50;;;;;;;5.69;100.00;101465.28;6122197;23;20364;-85
2021/10/16 01:07:33;;;;;;;6.22;1.25;;;;;;;5.87;100.00;101470.03;6121696;23;20064;-85
2021/10/16 01:10:05;;;;;;;12.93;2.08;;;;;;;6.00;100.00;101466.03;6123118;23;20033;-86
2021/10/16 01:12:36;;;;;;;12.93;1.98;;;;;;;6.13;100.00;101467.22;6147045;23;20025;-86
2021/10/16 01:15:11;;;;;;;9.60;2.92;;;;;;;6.22;100.00;101469.09;6121612;23;20120;-85
2021/10/16 01:17:38;;;;;;;8.35;1.40;;;;;;;6.28;100.00;101462.34;6123548;23;20025;-86
2021/10/16 01:20:10;;;;;;;6.18;1.02;;;;;;;6.32;100.00;101468.47;6122400;23;20479;-85
2021/10/16 01:22:40;;;;;;;5.47;1.33;;;;;;;6.36;100.00;101464.22;6147672;23;20087;-84
2021/10/16 01:25:27;;;;;;;5.03;1.35;;;;;;;6.40;100.00;101469.53;6145141;23;20334;-85
2021/10/16 01:27:55;;;;;;;6.30;1.70;;;;;;;6.44;100.00;101468.75;6123227;23;20032;-84
2021/10/16 01:30:24;;;;;;;2.95;1.90;;;;;;;6.49;100.00;101463.63;6122038;23;20935;-85
2021/10/16 01:32:52;;;;;;;7.00;1.05;;;;;;;6.54;100.00;101464.59;6121698;23;20096;-85
2021/10/16 01:35:18;;;;;;;10.02;1.27;;;;;;;6.60;100.00;101464.72;6123727;23;20124;-85
2021/10/16 01:37:49;;;;;;;6.28;0.93;;;;;;;6.66;100.00;101463.97;6121813;23;20045;-85
2021/10/16 01:40:17;;;;;;;4.05;1.40;;;;;;;6.73;100.00;101460.66;6124422;23;20064;-86
2021/10/16 01:42:44;;;;;;;4.75;1.30;;;;;;;6.79;100.00;101458.19;6121602;23;20061;-86
2021/10/16 01:45:16;;;;;;;12.40;2.08;;;;;;;6.83;100.00;101455.63;6122561;23;20025;-86
2021/10/16 01:48:09;;;;;;;6.03;0.98;;;;;;;6.86;100.00;101453.09;6121962;23;20022;-86
2021/10/16 01:50:43;;;;;;;4.15;0.95;;;;;;;6.88;100.00;101448.78;6116157;23;20044;-85
2021/10/16 01:53:10;;;;;;;3.58;1.05;;;;;;;6.88;100.00;101446.19;6125193;23;20060;-84
2021/10/16 01:55:38;;;;;;;5.53;0.98;;;;;;;6.84;100.00;101445.25;6120408;23;20025;-86
2021/10/16 01:58:10;;;;;;;4.60;1.00;;;;;;;6.78;100.00;101446.00;6148707;23;20028;-85
2021/10/16 02:00:38;;;;;;;5.00;0.85;;;;;;;6.71;100.00;101445.84;6120509;23;20037;-85
2021/10/16 02:03:18;;;;;;;2.42;1.40;;;;;;;6.65;100.00;101443.13;6148021;23;20032;-85
2021/10/16 02:05:46;;;;;;;8.13;1.40;;;;;;;6.53;100.00;101447.25;6121715;23;20100;-85
2021/10/16 02:08:14;;;;;;;1.98;0.98;;;;;;;6.42;100.00;101443.56;6145999;23;20017;-86
2021/10/16 02:10:41;;;;;;;8.85;1.38;;;;;;;6.28;100.00;101449.34;6123230;23;20056;-85
2021/10/16 02:13:08;;;;;;;15.45;4.05;;;;;;;6.16;100.00;101453.41;6144424;23;20041;-84
2021/10/16 02:15:35;;;;;;;7.57;1.30;;;;;;;6.06;100.00;101452.28;6144685;23;20029;-85
2021/10/16 02:18:01;;;;;;;2.60;0.90;;;;;;;5.94;100.00;101451.16;6119823;23;20022;-84
2021/10/16 02:20:28;;;;;;;5.35;1.10;;;;;;;5.83;100.00;101452.63;6122214;23;20025;-85
2021/10/16 02:22:55;;;;;;;6.55;1.60;;;;;;;5.76;100.00;101451.63;6120876;23;20028;-85
2021/10/16 02:25:21;;;;;;;7.93;1.75;;;;;;;5.67;100.00;101454.00;6121919;23;20018;-86
2021/10/16 02:27:48;;;;;;;6.68;1.15;;;;;;;5.61;100.00;101454.69;6121967;23;20503;-85
2021/10/16 02:30:15;;;;;;;6.53;1.23;;;;;;;5.54;100.00;101454.50;6120082;23;20099;-86
2021/10/16 02:32:42;;;;;;;4.05;1.30;;;;;;;5.50;100.00;101455.28;6146862;23;20750;-85
2021/10/16 02:35:09;;;;;;;4.72;0.98;;;;;;;5.45;100.00;101450.00;6144709;23;20025;-84
2021/10/16 02:37:36;;;;;;;6.07;1.10;;;;;;;5.44;100.00;101456.03;6122262;23;20021;-85
2021/10/16 02:40:04;;;;;;;13.93;2.45;;;;;;;5.40;100.00;101456.78;6145489;23;20033;-85
2021/10/16 02:42:30;;;;;;;6.57;1.40;;;;;;;5.34;100.00;101460.09;6121345;23;20344;-85
2021/10/16 02:44:57;;;;;;;3.30;0.98;;;;;;;5.29;100.00;101464.28;6120601;23;20119;-85
2021/10/16 02:47:30;;;;;;;5.93;1.48;;;;;;;5.25;100.00;101465.03;6146612;23;20029;-85
2021/10/16 02:49:59;;;;;;;4.25;1.05;;;;;;;5.22;100.00;101465.84;6121123;23;20025;-86
2021/10/16 02:52:28;;;;;;;8.98;1.27;;;;;;;5.20;100.00;101470.13;6146312;23;20021;-85
2021/10/16 02:54:55;;;;;;;6.72;1.73;;;;;;;5.16;100.00;101470.88;6120352;23;20023;-85
2021/10/16 02:57:22;;;;;;;4.05;1.58;;;;;;;5.12;100.00;101472.53;6121843;23;20122;-84
2021/10/16 02:59:51;;;;;;;7.75;1.70;;;;;;;5.09;100.00;101471.56;6121161;23;20520;-84
2021/10/16 03:02:18;;;;;;;6.57;1.30;;;;;;;5.03;100.00;101469.69;6120773;23;20028;-85
2021/10/16 03:04:45;;;;;;;8.35;2.50;;;;;;;5.01;100.00;101473.06;6121698;23;20474;-85
2021/10/16 03:07:14;;;;;;;4.95;1.50;;;;;;;5.00;100.00;101476.50;6146449;23;20437;-86
2021/10/16 03:09:41;;;;;;;13.73;2.47;;;;;;;5.01;100.00;101475.66;6122955;23;20025;-86
2021/10/16 03:12:08;;;;;;;15.35;2.15;;;;;;;4.96;100.00;101479.00;6144711;23;20053;-86
2021/10/16 03:14:36;;;;;;;12.68;2.85;;;;;;;4.99;100.00;101477.34;6162624;23;20037;-86
2021/10/16 03:17:06;;;;;;;5.40;2.63;;;;;;;5.01;100.00;101476.53;6132211;23;20048;-86
2021/10/16 03:19:41;;;;;;;4.70;1.35;;;;;;;5.10;100.00;101478.50;6142941;23;20006;-86
2021/10/16 03:22:09;;;;;;;6.13;1.67;;;;;;;5.17;100.00;101479.56;6141157;23;20028;-86
2021/10/16 03:24:37;;;;;;;7.13;3.33;;;;;;;5.24;100.00;101484.03;6119120;23;20025;-86
2021/10/16 03:27:05;;;;;;;7.18;1.20;;;;;;;5.34;100.00;101475.66;6148906;23;20018;-86
2021/10/16 03:29:33;;;;;;;9.38;1.63;;;;;;;5.45;100.00;101484.63;6121153;23;20764;-86
2021/10/16 03:32:00;;;;;;;8.93;2.35;;;;;;;5.49;100.00;101480.38;6123332;23;20025;-85
2021/10/16 03:34:29;;;;;;;12.05;1.60;;;;;;;5.53;100.00;101483.91;6122544;23;20070;-86
2021/10/16 03:36:57;;;;;;;5.15;1.52;;;;;;;5.59;100.00;101481.47;6123482;23;20084;-86
2021/10/16 03:39:24;;;;;;;8.10;2.47;;;;;;;5.66;100.00;101480.81;6147695;23;20045;-85
2021/10/16 03:41:51;;;;;;;6.28;1.25;;;;;;;5.70;100.00;101482.63;6118892;23;20516;-85
2021/10/16 03:44:20;;;;;;;13.10;3.75;;;;;;;5.70;100.00;101485.22;6121757;23;20045;-86
2021/10/16 03:46:47;;;;;;;10.40;1.60;;;;;;;5.67;100.00;101484.25;6119147;23;20057;-86
2021/10/16 03:49:14;;;;;;;6.85;1.38;;;;;;;5.69;100.00;101477.41;6148895;23;20021;-86
2021/10/16 03:51:41;;;;;;;7.07;1.10;;;;;;;5.68;100.00;101478.25;6148989;23;20088;-86
2021/10/16 03:54:10;;;;;;;9.77;1.40;;;;;;;5.67;100.00;101479.06;6125224;23;20026;-85
2021/10/16 03:56:37;;;;;;;7.75;1.83;;;;;;;5.68;100.00;101475.63;6149486;23;20029;-86
2021/10/16 03:59:04;;;;;;;6.25;1.55;;;;;;;5.69;100.00;101487.78;6121734;23;20029;-86
2021/10/16 04:01:30;;;;;;;7.53;1.65;;;;;;;5.72;100.00;101474.88;6122883;23;20052;-86
2021/10/16 04:03:57;;;;;;;4.97;1.15;;;;;;;5.68;100.00;101478.25;6121566;23;20036;-86
2021/10/16 04:06:24;;;;;;;3.50;1.02;;;;;;;5.62;100.00;101482.44;6146933;23;20079;-86
2021/10/16 04:08:50;;;;;;;3.65;1.35;;;;;;;5.54;100.00;101480.47;6121306;23;20481;-86
2021/10/16 04:11:17;;;;;;;5.93;1.45;;;;;;;5.42;100.00;101487.16;6148279;23;20063;-86
2021/10/16 04:13:44;;;;;;;5.60;0.90;;;;;;;5.31;100.00;101488.56;6145834;23;20804;-86
2021/10/16 04:16:10;;;;;;;7.22;0.90;;;;;;;5.22;100.00;101483.16;6121554;23;20045;-86
2021/10/16 04:18:37;;;;;;;7.53;1.73;;;;;;;5.12;100.00;101488.09;6145296;23;20029;-85
2021/10/16 04:21:04;;;;;;;6.32;1.70;;;;;;;5.06;100.00;101489.63;6120987;23;20806;-85
2021/10/16 04:23:31;;;;;;;3.08;1.48;;;;;;;5.01;100.00;101479.13;6120044;23;20021;-85
2021/10/16 04:25:57;;;;;;;4.95;1.13;;;;;;;4.96;100.00;101483.31;6147502;23;20071;-85
2021/10/16 04:28:24;;;;;;;7.50;1.75;;;;;;;4.93;100.00;101488.44;6120646;23;20025;-85
2021/10/16 04:30:51;;;;;;;6.80;1.95;;;;;;;4.91;100.00;101483.19;6146744;23;20037;-85
2021/10/16 04:33:17;;;;;;;8.30;1.70;;;;;;;4.91;100.00;101485.78;6122296;23;20079;-86
2021/10/16 04:35:44;;;;;;;8.43;1.95;;;;;;;4.96;100.00;101484.19;6120867;23;20119;-86
2021/10/16 04:38:11;;;;;;;3.72;1.10;;;;;;;5.01;100.00;101486.91;6145870;23;20022;-86
2021/10/16 04:40:38;;;;;;;9.93;1.27;;;;;;;5.08;100.00;101470.66;6146930;23;20401;-86
2021/10/16 04:43:06;;;;;;;6.75;1.80;;;;;;;5.17;100.00;101482.16;6148476;23;20029;-85
2021/10/16 04:45:33;;;;;;;5.65;2.00;;;;;;;5.22;100.00;101488.34;6119261;23;20030;-86
2021/10/16 04:48:01;;;;;;;5.30;1.80;;;;;;;5.17;100.00;101483.00;6147229;23;20029;-86
2021/10/16 04:50:28;;;;;;;5.53;1.50;;;;;;;5.16;100.00;101488.16;6121954;23;20377;-86
2021/10/16 04:52:57;;;;;;;8.85;3.10;;;;;;;5.09;100.00;101487.13;6147553;23;20457;-86
2021/10/16 04:55:24;;;;;;;5.45;1.20;;;;;;;5.05;100.00;101491.34;6120590;23;20033;-86
2021/10/16 04:57:51;;;;;;;9.57;2.13;;;;;;;5.01;100.00;101486.91;6121480;23;20032;-86
2021/10/16 05:00:18;;;;;;;14.10;2.47;;;;;;;5.00;100.00;101486.88;6119152;23;20484;-86
2021/10/16 05:02:44;;;;;;;8.95;1.38;;;;;;;4.97;100.00;101493.72;6124544;23;20080;-85
2021/10/16 05:05:11;;;;;;;3.58;2.15;;;;;;;4.95;100.00;101487.63;6119722;23;20029;-85
2021/10/16 05:07:38;;;;;;;8.07;1.40;;;;;;;4.94;100.00;101493.66;6119676;23;20025;-85
2021/10/16 05:10:05;;;;;;;9.90;4.40;;;;;;;4.95;100.00;101503.22;6121023;23;20389;-86
2021/10/16 05:12:32;;;;;;;9.07;1.50;;;;;;;4.96;100.00;101499.75;6121150;23;20033;-86
2021/10/16 05:14:59;;;;;;;12.98;2.72;;;;;;;4.96;100.00;101494.56;6144760;23;20029;-85
2021/10/16 05:17:25;;;;;;;9.43;1.27;;;;;;;4.97;100.00;101498.06;6144536;23;20472;-86
2021/10/16 05:19:52;;;;;;;6.55;2.25;;;;;;;4.97;100.00;101487.69;6121416;23;20416;-86
2021/10/16 05:22:19;;;;;;;3.47;1.77;;;;;;;4.96;100.00;101491.97;6122451;23;20022;-86
2021/10/16 05:24:45;;;;;;;7.10;3.30;;;;;;;4.99;100.00;101496.38;6120100;23;20064;-86
2021/10/16 05:27:12;;;;;;;5.28;1.15;;;;;;;5.01;100.00;101489.50;6121082;23;20108;-86
2021/10/16 05:29:38;;;;;;;5.07;3.38;;;;;;;5.06;100.00;101489.63;6144995;23;20334;-85
2021/10/16 05:32:05;;;;;;;6.10;2.08;;;;;;;5.09;100.00;101495.78;6145236;23;20381;-86
2021/10/16 05:34:32;;;;;;;4.82;1.45;;;;;;;5.14;100.00;101498.50;6143073;23;20075;-86
2021/10/16 05:36:59;;;;;;;6.32;1.00;;;;;;;5.16;100.00;101493.34;6148985;23;20311;-86
2021/10/16 05:39:25;;;;;;;8.40;1.30;;;;;;;5.19;100.00;101493.44;6123901;23;20045;-86
2021/10/16 05:41:52;;;;;;;6.82;1.52;;;;;;;5.20;100.00;101496.09;6121318;23;20149;-86
2021/10/16 05:44:19;;;;;;;4.18;0.98;;;;;;;5.22;100.00;101496.13;6120103;23;20052;-85
2021/10/16 05:46:45;;;;;;;2.88;0.88;;;;;;;5.24;100.00;101510.00;6118637;23;20090;-86
2021/10/16 05:49:12;;;;;;;7.32;1.30;;;;;;;5.27;100.00;101502.31;6144760;23;20024;-86
2021/10/16 05:51:39;;;;;;;7.45;1.50;;;;;;;5.30;100.00;101497.19;6119072;23;20053;-87
2021/10/16 05:54:06;;;;;;;6.15;1.08;;;;;;;5.35;100.00;101506.00;6146942;23;20041;-86
2021/10/16 05:56:35;;;;;;;3.83;1.55;;;;;;;5.41;100.00;101510.44;6143499;23;20055;-85
2021/10/16 05:59:01;;;;;;;8.07;1.58;;;;;;;5.46;100.00;101514.03;6122212;23;20021;-86
2021/10/16 06:01:28;;;;;;;7.57;1.77;;;;;;;5.52;100.00;101513.34;6146349;23;20031;-86
2021/10/16 06:03:55;;;;;;;9.75;2.13;;;;;;;5.55;100.00;101511.69;6119412;23;20052;-86
2021/10/16 06:06:21;;;;;;;4.95;1.92;;;;;;;5.60;100.00;101520.47;6146892;23;20492;-86
2021/10/16 06:08:48;;;;;;;5.43;2.25;;;;;;;5.65;100.00;101519.75;6121500;23;20067;-86
2021/10/16 06:11:15;;;;;;;5.82;1.58;;;;;;;5.71;100.00;101525.06;6145432;23;20053;-85
2021/10/16 06:13:42;;;;;;;10.05;3.60;;;;;;;5.75;100.00;101527.78;6119492;23;20301;-86
2021/10/16 06:16:08;;;;;;;4.75;1.40;;;;;;;5.78;100.00;101520.06;6118954;23;20026;-86
2021/10/16 06:18:35;;;;;;;4.18;2.38;;;;;;;5.84;100.00;101526.25;6144683;23;20013;-86
2021/10/16 06:21:03;;;;;;;5.25;2.65;;;;;;;5.89;100.00;101528.13;6141501;23;20400;-86
2021/10/16 06:23:31;;;;;;;3.38;2.15;;;;;;;5.93;100.00;101532.56;6119528;23;20029;-85
2021/10/16 06:25:57;;;;;;;6.38;3.67;;;;;;;5.99;100.00;101528.38;6118046;23;20025;-86
2021/10/16 06:28:25;;;;;;;5.25;2.08;;;;;;;6.03;100.00;101532.81;6120206;23;20021;-85
2021/10/16 06:30:52;;;;;;;7.45;2.45;;;;;;;6.06;100.00;101535.47;6142835;23;20029;-86
2021/10/16 06:33:18;;;;;;;9.52;2.65;;;;;;;6.06;100.00;101530.28;6120581;23;20029;-86
2021/10/16 06:35:45;;;;;;;5.13;2.22;;;;;;;6.11;100.00;101534.75;6119762;23;20073;-86
2021/10/16 06:38:12;;;;;;;4.60;2.08;;;;;;;6.19;100.00;101539.25;6118835;23;20538;-85
2021/10/16 06:40:39;;;;;;;11.75;2.35;;;;;;;6.24;100.00;101541.09;6122089;23;20029;-85
2021/10/16 06:43:08;;;;;;;9.80;2.13;;;;;;;6.29;100.00;101536.03;6122177;23;20052;-86
2021/10/16 06:45:35;;;;;;;9.80;3.40;;;;;;;6.36;100.00;101542.22;6121446;23;20049;-86
2021/10/16 06:48:05;;;;;;;4.22;2.50;;;;;;;6.40;100.00;101544.06;6121817;23;20025;-86
2021/10/16 06:50:32;;;;;;;6.72;3.45;;;;;;;6.46;100.00;101555.47;6146489;23;20024;-86
2021/10/16 06:52:58;;;;;;;4.60;1.92;;;;;;;6.52;100.00;101552.16;6118246;23;20777;-86
2021/10/16 06:55:25;;;;;;;8.35;2.95;;;;;;;6.60;100.00;101554.91;6117906;23;20036;-85
2021/10/16 06:57:54;;;;;;;7.35;2.17;;;;;;;6.67;100.00;101553.31;6145231;23;20018;-85
2021/10/16 07:00:21;;;;;;;7.65;2.58;;;;;;;6.74;100.00;101557.81;6118415;23;20022;-86
2021/10/16 07:02:48;;;;;;;3.30;2.33;;;;;;;6.83;100.00;101562.31;6121004;23;20369;-85
2021/10/16 07:05:15;;;;;;;8.45;2.60;;;;;;;6.88;100.00;101560.69;6144574;23;20032;-86
2021/10/16 07:07:42;;;;;;;6.97;2.35;;;;;;;6.96;100.00;101566.94;6120915;23;20022;-86
2021/10/16 07:10:08;;;;;;;5.05;1.85;;;;;;;7.04;100.00;101569.69;6144754;23;20020;-85
2021/10/16 07:12:36;;;;;;;2.33;1.95;;;;;;;7.09;100.00;101568.06;6121806;23;20034;-86
2021/10/16 07:15:05;;;;;;;3.63;2.13;;;;;;;7.16;100.00;101566.47;6144664;23;20105;-86
2021/10/16 07:17:31;;;;;;;6.00;1.95;;;;;;;7.19;99.84;101566.53;6119207;23;20033;-86
2021/10/16 07:19:58;;;;;;;5.15;2.45;;;;;;;7.24;99.70;101564.91;6145333;23;20238;-86
2021/10/16 07:22:25;;;;;;;5.05;1.50;;;;;;;7.27;99.43;101572.75;6120544;23;20029;-86
2021/10/16 07:24:52;;;;;;;9.32;2.88;;;;;;;7.35;99.50;101571.19;6120038;23;20116;-86
2021/10/16 07:27:18;;;;;;;6.65;2.63;;;;;;;7.42;98.75;101573.06;6119998;23;20029;-86
2021/10/16 07:29:45;;;;;;;4.80;2.30;;;;;;;7.48;97.69;101576.63;6121940;23;20044;-86
2021/10/16 07:32:20;;;;;;;11.10;2.25;;;;;;;7.51;97.30;101574.97;6144686;23;20029;-85
2021/10/16 07:34:47;;;;;;;6.72;2.15;;;;;;;7.56;97.61;101569.81;6146440;23;20033;-86
2021/10/16 07:37:14;;;;;;;2.90;2.28;;;;;;;7.59;97.13;101578.59;6122085;23;20120;-86
2021/10/16 07:39:43;;;;;;;7.00;2.60;;;;;;;7.62;96.73;101575.16;6145951;23;20045;-86
2021/10/16 07:42:10;;;;;;;7.13;2.15;;;;;;;7.72;96.59;101576.22;6147475;23;20022;-86
2021/10/16 07:44:37;;;;;;;7.70;2.25;;;;;;;7.86;96.99;101573.81;6144823;23;20095;-86
2021/10/16 07:47:03;;;;;;;4.65;2.30;;;;;;;8.02;95.60;101575.00;6147062;23;20029;-87
2021/10/16 07:49:30;;;;;;;5.70;2.78;;;;;;;8.10;95.07;101578.59;6119886;23;20025;-86
2021/10/16 07:51:59;;;;;;;6.85;2.50;;;;;;;8.17;94.59;101579.56;6121639;23;20053;-86
2021/10/16 07:54:26;;;;;;;8.95;3.13;;;;;;;8.27;94.38;101584.06;6145176;23;20588;-86
2021/10/16 07:56:53;;;;;;;8.48;2.80;;;;;;;8.35;94.37;101587.66;6144976;23;20515;-86
2021/10/16 07:59:20;;;;;;;9.60;3.13;;;;;;;8.44;93.79;101590.41;6123462;23;20340;-86
2021/10/16 08:01:46;;;;;;;10.48;3.80;;;;;;;8.47;93.34;101588.75;6120616;23;20056;-86
2021/10/16 08:04:13;;;;;;;6.57;2.08;;;;;;;8.53;93.49;101586.22;6148149;23;20280;-86
2021/10/16 08:06:40;;;;;;;6.97;2.15;;;;;;;8.66;93.50;101592.50;6146456;23;20033;-86
2021/10/16 08:09:06;;;;;;;3.63;1.75;;;;;;;8.86;92.60;101591.03;6148466;23;20032;-86
2021/10/16 08:11:34;;;;;;;9.35;4.22;;;;;;;9.04;90.42;101597.34;6123355;23;20763;-85
2021/10/16 08:14:00;;;;;;;7.97;2.30;;;;;;;9.15;90.30;101595.75;6143829;23;20075;-86
2021/10/16 08:16:27;;;;;;;6.00;2.53;;;;;;;9.30;89.98;101599.41;6122482;23;20112;-86
2021/10/16 08:18:54;;;;;;;4.18;2.40;;;;;;;9.43;88.67;101602.16;6121512;23;20108;-86
2021/10/16 08:21:21;;;;;;;8.55;2.75;;;;;;;9.42;88.78;101595.16;6123067;23;20029;-86
2021/10/16 08:23:48;;;;;;;6.68;2.63;;;;;;;9.42;88.73;101591.69;6122016;23;20035;-86
2021/10/16 08:26:15;;;;;;;4.32;1.67;;;;;;;9.43;88.68;101591.69;6147315;23;20029;-86
2021/10/16 08:28:44;;;;;;;4.63;2.58;;;;;;;9.47;88.94;101595.22;6148569;23;20045;-86
2021/10/16 08:31:10;;;;;;;5.60;2.25;;;;;;;9.55;88.53;101595.31;6122501;23;20497;-86
2021/10/16 08:33:37;;;;;;;3.95;1.45;;;;;;;9.60;88.42;101594.50;6148024;23;20761;-86
2021/10/16 08:36:13;;;;;;;9.68;2.53;;;;;;;9.70;88.20;101597.19;6121707;23;20026;-86
2021/10/16 08:38:41;;;;;;;5.00;1.55;;;;;;;9.69;88.08;101600.69;6124278;23;20550;-86
2021/10/16 08:41:12;;;;;;;9.68;1.85;;;;;;;9.62;88.18;101594.53;6122028;23;20032;-86
2021/10/16 08:43:41;;;;;;;4.88;1.48;;;;;;;9.61;88.52;101598.00;6123123;23;20028;-86
2021/10/16 08:46:09;;;;;;;3.80;1.60;;;;;;;9.71;89.00;101601.56;6121815;23;20034;-86
2021/10/16 08:48:39;;;;;;;1.65;1.55;;;;;;;9.99;88.13;101604.47;6121654;23;20524;-86
2021/10/16 08:51:12;;;;;;;6.38;1.67;;;;;;;10.39;87.01;101604.78;6121224;23;20299;-86
2021/10/16 08:53:39;;;;;;;3.80;1.65;;;;;;;10.75;85.52;101603.28;6146012;23;20025;-86
2021/10/16 08:56:06;;;;;;;5.75;2.17;;;;;;;11.06;84.21;101606.91;6146753;23;20022;-86
2021/10/16 08:58:36;;;;;;;3.67;1.92;;;;;;;11.27;82.74;101605.25;6122769;23;20057;-86
2021/10/16 09:01:05;;;;;;;8.65;1.80;;;;;;;11.39;81.99;101600.06;6145595;23;20096;-86
2021/10/16 09:03:40;;;;;;;4.30;1.60;;;;;;;11.46;80.63;101605.31;6120642;23;20052;-86
2021/10/16 09:06:09;;;;;;;7.80;1.63;;;;;;;11.47;78.97;101597.47;6121786;23;20033;-86
2021/10/16 09:08:42;;;;;;;15.93;2.67;;;;;;;11.51;80.30;101595.72;6121559;23;20125;-87
2021/10/16 09:11:17;;;;;;;3.07;1.60;;;;;;;11.67;79.95;101599.25;6121646;23;20017;-87
2021/10/16 09:14:06;;;;;;;4.88;1.23;;;;;;;11.90;78.97;101597.53;6120290;23;20287;-86
2021/10/16 09:16:42;;;;;;;2.63;1.10;;;;;;;12.15;78.37;101596.69;6146080;23;20033;-86
2021/10/16 09:19:21;;;;;;;5.47;1.27;;;;;;;12.24;76.99;101594.94;6146894;23;20077;-86
2021/10/16 09:21:51;;;;;;;5.00;0.95;;;;;;;12.34;76.68;101597.56;6124105;23;20041;-86
2021/10/16 09:24:27;;;;;;;2.40;0.82;;;;;;;12.37;76.45;101606.31;6144889;23;20027;-87
2021/10/16 09:27:00;;;;;;;7.13;1.42;;;;;;;12.35;76.26;101599.31;6126101;23;20104;-87
2021/10/16 09:29:30;;;;;;;3.90;1.30;;;;;;;12.40;76.52;101595.78;6147245;23;20104;-87
2021/10/16 09:32:01;;;;;;;2.45;1.23;;;;;;;12.26;74.68;101600.19;6145161;23;20789;-87
2021/10/16 09:34:33;;;;;;;5.15;1.27;;;;;;;12.03;74.64;101594.94;6123240;23;20092;-87
2021/10/16 09:37:11;;;;;;;8.10;1.23;;;;;;;11.87;75.83;101601.91;6121137;23;20756;-87
2021/10/16 09:39:59;;;;;;;3.40;1.10;;;;;;;11.85;75.97;101598.38;6124369;23;20029;-86
2021/10/16 09:42:36;;;;;;;4.30;1.17;;;;;;;11.87;76.40;101596.66;6123682;23;20036;-87
2021/10/16 09:45:11;;;;;;;3.47;1.20;;;;;;;11.83;75.82;101605.41;6122537;23;20390;-86
2021/10/16 09:47:38;;;;;;;6.03;1.02;;;;;;;11.82;76.02;101601.88;6145517;23;20029;-86
2021/10/16 09:50:11;;;;;;;5.50;1.17;;;;;;;11.97;76.09;101597.53;6123376;23;20017;-86
2021/10/16 09:52:45;;;;;;;3.53;1.30;;;;;;;12.16;75.95;101604.56;6146724;23;20028;-87
2021/10/16 09:55:15;;;;;;;1.90;1.20;;;;;;;12.41;74.52;101600.16;6119375;23;20108;-87
2021/10/16 09:57:44;;;;;;;1.35;0.50;;;;;;;12.71;73.51;101598.38;6146555;23;20404;-86
2021/10/16 10:00:14;;;;;;;3.92;0.98;;;;;;;13.03;72.07;101594.72;6144929;23;20013;-86
2021/10/16 10:02:41;;;;;;;2.35;0.80;;;;;;;13.46;71.15;101592.81;6122928;23;20459;-86
2021/10/16 10:05:09;;;;;;;2.13;0.85;;;;;;;13.80;68.90;101590.81;6102928;23;20089;-84
2021/10/16 10:07:37;;;;;;;2.95;0.85;;;;;;;14.02;68.27;101593.31;6065048;23;20027;-84
2021/10/16 10:10:08;;;;;;;4.30;1.00;;;;;;;14.09;67.69;101592.34;6064490;23;20050;-85
2021/10/16 10:12:34;;;;;;;2.50;0.60;;;;;;;14.03;67.28;101600.31;6065866;23;20022;-86
2021/10/16 10:15:02;;;;;;;0.85;0.63;;;;;;;13.97;66.79;101600.38;6063185;23;20026;-84
2021/10/16 10:17:35;;;;;;;5.07;0.45;;;;;;;13.84;67.15;101604.84;6084738;23;20030;-86
2021/10/16 10:20:13;;;;;;;;;;;;;;;13.61;67.20;101600.63;6088384;23;20442;-85
2021/10/16 10:22:41;;;;;;;2.67;0.82;;;;;;;13.40;68.82;101596.34;6086537;23;19926;-85
2021/10/16 10:25:28;;;;;;;1.90;0.30;;;;;;;13.17;69.64;101601.72;6062564;23;20030;-85
2021/10/16 10:27:57;;;;;;;6.45;1.13;;;;;;;13.09;70.46;101599.13;6086086;23;20041;-85
2021/10/16 10:30:35;;;;;;;4.13;1.23;;;;;;;13.04;69.81;101598.25;6085758;23;20018;-86
2021/10/16 10:33:18;;;;;;;2.90;0.70;;;;;;;13.02;70.30;101593.00;6085602;23;20030;-86
2021/10/16 10:36:08;;;;;;;2.13;0.80;;;;;;;12.98;69.59;101596.50;6109198;23;20026;-86
2021/10/16 10:38:39;;;;;;;6.07;1.45;;;;;;;13.03;70.26;101594.72;6084929;23;20874;-85
2021/10/16 10:41:30;;;;;;;5.68;1.30;;;;;;;12.99;68.85;101598.25;6066582;23;20026;-86
2021/10/16 10:43:57;;;;;;;3.80;0.82;;;;;;;13.08;68.95;101600.00;6061334;23;20073;-86
2021/10/16 10:46:29;;;;;;;4.13;0.70;;;;;;;13.15;68.32;101593.81;6061772;23;20093;-86
2021/10/16 10:49:08;;;;;;;3.05;0.90;;;;;;;13.21;67.21;101588.53;6064920;23;20940;-86
2021/10/16 10:51:37;;;;;;;3.50;1.05;;;;;;;13.28;67.64;101588.50;6085891;23;20019;-86
2021/10/16 10:54:17;;;;;;;7.25;0.65;;;;;;;13.45;66.32;101585.81;6087969;23;20030;-86
2021/10/16 10:56:50;;;;;;;5.57;0.82;;;;;;;13.60;65.74;101588.34;6064910;23;20744;-86
2021/10/16 10:59:19;;;;;;;1.65;0.70;;;;;;;13.76;65.28;101581.22;6089585;23;20521;-86
2021/10/16 11:01:58;;;;;;;1.75;0.57;;;;;;;13.95;62.95;101576.69;6062118;23;20027;-86
2021/10/16 11:04:47;;;;;;;4.20;0.60;;;;;;;14.23;60.38;101582.56;6062818;23;20074;-86
2021/10/16 11:07:30;;;;;;;3.72;1.55;;;;;;;14.43;60.93;101576.25;6088427;23;20022;-84
2021/10/16 11:09:58;;;;;;;1.35;0.40;;;;;;;14.55;59.98;101577.91;6064453;23;20491;-86
2021/10/16 11:12:35;;;;;;;4.72;0.75;;;;;;;14.42;59.37;101579.78;6087071;23;20049;-87
2021/10/16 11:15:03;;;;;;;0.75;0.73;;;;;;;14.49;60.50;101580.59;6087353;23;20022;-87
2021/10/16 11:17:46;;;;;;;4.60;0.65;;;;;;;14.58;59.86;101559.41;6085803;23;20109;-86
2021/10/16 11:20:19;;;;;;;1.73;0.90;;;;;;;14.71;59.87;101570.72;6063106;23;20022;-86
2021/10/16 11:22:53;;;;;;;0.75;0.40;;;;;;;14.84;58.32;101563.53;6063256;23;20034;-84
2021/10/16 11:25:29;;;;;;;3.47;0.80;;;;;;;15.02;59.30;101565.94;6085885;23;20045;-84
2021/10/16 11:28:06;;;;;;;3.17;0.80;;;;;;;15.15;59.26;101565.78;6062255;23;20030;-85
2021/10/16 11:30:39;;;;;;;2.53;0.70;;;;;;;15.19;59.05;101567.50;6060937;23;20037;-84
2021/10/16 11:33:10;;;;;;;4.80;0.65;;;;;;;15.19;58.07;101562.22;6086537;23;20026;-85
2021/10/16 11:35:40;;;;;;;3.33;0.75;;;;;;;14.98;57.28;101573.91;6062383;23;20834;-85